sensor_id;sensor_type;location;lat;lon;timestamp;P1;durP1;ratioP1;P2;durP2;ratioP2
74229;SDS011;62589;12.568;99.958;2023-08-07T00:01:27;4.88;;;1.02;;
74229;SDS011;62589;12.568;99.958;2023-08-07T00:03:53;4.95;;;0.98;;
74229;SDS011;62589;12.568;99.958;2023-08-07T00:06:19;6.80;;;1.10;;
74229;SDS011;62589;12.568;99.958;2023-08-07T00:08:46;3.80;;;0.90;;
74229;SDS011;62589;12.568;99.958;2023-08-07T00:11:12;5.07;;;1.00;;
74229;SDS011;62589;12.568;99.958;2023-08-07T00:13:39;5.22;;;0.85;;
74229;SDS011;62589;12.568;99.958;2023-08-07T00:16:05;5.40;;;1.30;;
74229;SDS011;62589;12.568;99.958;2023-08-07T00:18:31;8.10;;;1.08;;
74229;SDS011;62589;12.568;99.958;2023-08-07T00:20:58;4.80;;;0.95;;
74229;SDS011;62589;12.568;99.958;2023-08-07T00:23:25;5.18;;;1.20;;
74229;SDS011;62589;12.568;99.958;2023-08-07T00:25:51;5.13;;;1.27;;
74229;SDS011;62589;12.568;99.958;2023-08-07T00:28:18;6.03;;;1.10;;
74229;SDS011;62589;12.568;99.958;2023-08-07T00:30:44;4.22;;;1.05;;
74229;SDS011;62589;12.568;99.958;2023-08-07T00:33:11;4.70;;;1.40;;
74229;SDS011;62589;12.568;99.958;2023-08-07T00:35:37;3.28;;;1.20;;
74229;SDS011;62589;12.568;99.958;2023-08-07T00:38:04;2.72;;;1.20;;
74229;SDS011;62589;12.568;99.958;2023-08-07T00:40:37;10.55;;;1.38;;
74229;SDS011;62589;12.568;99.958;2023-08-07T00:43:04;10.90;;;1.45;;
74229;SDS011;62589;12.568;99.958;2023-08-07T00:45:34;5.22;;;1.15;;
74229;SDS011;62589;12.568;99.958;2023-08-07T00:48:04;5.38;;;1.50;;
74229;SDS011;62589;12.568;99.958;2023-08-07T00:50:31;8.05;;;1.67;;
74229;SDS011;62589;12.568;99.958;2023-08-07T00:52:58;7.72;;;1.30;;
74229;SDS011;62589;12.568;99.958;2023-08-07T00:55:25;4.05;;;1.42;;
74229;SDS011;62589;12.568;99.958;2023-08-07T00:57:52;6.07;;;1.05;;
74229;SDS011;62589;12.568;99.958;2023-08-07T01:00:19;4.65;;;1.42;;
74229;SDS011;62589;12.568;99.958;2023-08-07T01:02:46;5.57;;;1.02;;
74229;SDS011;62589;12.568;99.958;2023-08-07T01:05:16;6.07;;;1.50;;
74229;SDS011;62589;12.568;99.958;2023-08-07T01:07:46;4.78;;;1.52;;
74229;SDS011;62589;12.568;99.958;2023-08-07T01:10:14;4.28;;;1.50;;
74229;SDS011;62589;12.568;99.958;2023-08-07T01:12:42;4.68;;;1.67;;
74229;SDS011;62589;12.568;99.958;2023-08-07T01:15:18;6.65;;;1.25;;
74229;SDS011;62589;12.568;99.958;2023-08-07T01:17:50;4.53;;;1.27;;
74229;SDS011;62589;12.568;99.958;2023-08-07T01:20:19;5.78;;;1.02;;
74229;SDS011;62589;12.568;99.958;2023-08-07T01:22:46;5.03;;;1.15;;
74229;SDS011;62589;12.568;99.958;2023-08-07T01:25:13;7.82;;;1.52;;
74229;SDS011;62589;12.568;99.958;2023-08-07T01:27:51;4.75;;;1.52;;
74229;SDS011;62589;12.568;99.958;2023-08-07T01:30:30;4.60;;;1.25;;
74229;SDS011;62589;12.568;99.958;2023-08-07T01:36:01;6.07;;;1.45;;
74229;SDS011;62589;12.568;99.958;2023-08-07T01:38:32;5.30;;;1.20;;
74229;SDS011;62589;12.568;99.958;2023-08-07T01:40:59;4.47;;;1.10;;
74229;SDS011;62589;12.568;99.958;2023-08-07T01:43:27;4.97;;;1.08;;
74229;SDS011;62589;12.568;99.958;2023-08-07T01:45:54;2.75;;;1.05;;
74229;SDS011;62589;12.568;99.958;2023-08-07T01:48:20;5.82;;;1.00;;
74229;SDS011;62589;12.568;99.958;2023-08-07T01:50:47;3.25;;;0.98;;
74229;SDS011;62589;12.568;99.958;2023-08-07T01:53:13;3.55;;;1.23;;
74229;SDS011;62589;12.568;99.958;2023-08-07T01:55:39;3.58;;;1.10;;
74229;SDS011;62589;12.568;99.958;2023-08-07T01:58:06;5.30;;;0.93;;
74229;SDS011;62589;12.568;99.958;2023-08-07T02:00:32;4.20;;;0.90;;
74229;SDS011;62589;12.568;99.958;2023-08-07T02:02:59;3.80;;;1.38;;
74229;SDS011;62589;12.568;99.958;2023-08-07T02:05:25;4.85;;;0.70;;
74229;SDS011;62589;12.568;99.958;2023-08-07T02:07:51;3.10;;;0.60;;
74229;SDS011;62589;12.568;99.958;2023-08-07T02:10:18;2.45;;;0.82;;
74229;SDS011;62589;12.568;99.958;2023-08-07T02:12:44;1.95;;;0.50;;
74229;SDS011;62589;12.568;99.958;2023-08-07T02:15:11;3.90;;;0.80;;
74229;SDS011;62589;12.568;99.958;2023-08-07T02:17:37;2.00;;;0.60;;
74229;SDS011;62589;12.568;99.958;2023-08-07T02:20:06;5.60;;;0.70;;
74229;SDS011;62589;12.568;99.958;2023-08-07T02:22:33;3.80;;;0.73;;
74229;SDS011;62589;12.568;99.958;2023-08-07T02:24:59;4.03;;;0.77;;
74229;SDS011;62589;12.568;99.958;2023-08-07T02:27:26;3.80;;;0.82;;
74229;SDS011;62589;12.568;99.958;2023-08-07T02:29:52;5.88;;;0.90;;
74229;SDS011;62589;12.568;99.958;2023-08-07T02:32:19;5.50;;;0.98;;
74229;SDS011;62589;12.568;99.958;2023-08-07T02:34:45;3.45;;;0.68;;
74229;SDS011;62589;12.568;99.958;2023-08-07T02:37:12;4.22;;;0.63;;
74229;SDS011;62589;12.568;99.958;2023-08-07T02:39:39;3.45;;;1.00;;
74229;SDS011;62589;12.568;99.958;2023-08-07T02:42:05;5.53;;;0.88;;
74229;SDS011;62589;12.568;99.958;2023-08-07T02:44:32;1.70;;;0.60;;
74229;SDS011;62589;12.568;99.958;2023-08-07T02:46:59;3.30;;;0.82;;
74229;SDS011;62589;12.568;99.958;2023-08-07T02:49:25;5.53;;;0.70;;
74229;SDS011;62589;12.568;99.958;2023-08-07T02:51:51;4.10;;;0.60;;
74229;SDS011;62589;12.568;99.958;2023-08-07T02:54:18;4.45;;;0.60;;
74229;SDS011;62589;12.568;99.958;2023-08-07T02:56:44;4.88;;;0.93;;
74229;SDS011;62589;12.568;99.958;2023-08-07T02:59:11;3.90;;;1.00;;
74229;SDS011;62589;12.568;99.958;2023-08-07T03:01:37;3.95;;;0.75;;
74229;SDS011;62589;12.568;99.958;2023-08-07T03:04:04;2.88;;;0.68;;
74229;SDS011;62589;12.568;99.958;2023-08-07T03:06:30;3.35;;;0.52;;
74229;SDS011;62589;12.568;99.958;2023-08-07T03:08:56;3.65;;;1.02;;
74229;SDS011;62589;12.568;99.958;2023-08-07T03:11:23;3.65;;;0.98;;
74229;SDS011;62589;12.568;99.958;2023-08-07T03:13:49;2.70;;;0.60;;
74229;SDS011;62589;12.568;99.958;2023-08-07T03:16:16;3.40;;;0.52;;
74229;SDS011;62589;12.568;99.958;2023-08-07T03:18:42;5.60;;;0.40;;
74229;SDS011;62589;12.568;99.958;2023-08-07T03:21:09;3.75;;;0.70;;
74229;SDS011;62589;12.568;99.958;2023-08-07T03:23:35;18.33;;;9.55;;
74229;SDS011;62589;12.568;99.958;2023-08-07T03:26:06;12.65;;;6.65;;
74229;SDS011;62589;12.568;99.958;2023-08-07T03:28:34;4.40;;;2.20;;
74229;SDS011;62589;12.568;99.958;2023-08-07T03:31:01;3.63;;;0.90;;
74229;SDS011;62589;12.568;99.958;2023-08-07T03:33:28;5.22;;;0.70;;
74229;SDS011;62589;12.568;99.958;2023-08-07T03:35:55;3.80;;;1.08;;
74229;SDS011;62589;12.568;99.958;2023-08-07T03:38:21;3.65;;;0.70;;
74229;SDS011;62589;12.568;99.958;2023-08-07T03:40:47;3.85;;;0.82;;
74229;SDS011;62589;12.568;99.958;2023-08-07T03:43:14;4.60;;;0.68;;
74229;SDS011;62589;12.568;99.958;2023-08-07T03:45:40;2.75;;;0.82;;
74229;SDS011;62589;12.568;99.958;2023-08-07T03:48:07;8.48;;;0.98;;
74229;SDS011;62589;12.568;99.958;2023-08-07T03:50:34;4.88;;;0.75;;
74229;SDS011;62589;12.568;99.958;2023-08-07T03:53:02;1.98;;;0.75;;
74229;SDS011;62589;12.568;99.958;2023-08-07T03:55:32;3.17;;;0.80;;
74229;SDS011;62589;12.568;99.958;2023-08-07T03:57:58;3.85;;;1.05;;
74229;SDS011;62589;12.568;99.958;2023-08-07T04:00:25;5.95;;;1.10;;
74229;SDS011;62589;12.568;99.958;2023-08-07T04:02:51;4.00;;;0.95;;
74229;SDS011;62589;12.568;99.958;2023-08-07T04:05:18;4.72;;;0.75;;
74229;SDS011;62589;12.568;99.958;2023-08-07T04:07:44;3.20;;;0.73;;
74229;SDS011;62589;12.568;99.958;2023-08-07T04:10:11;2.65;;;0.50;;
74229;SDS011;62589;12.568;99.958;2023-08-07T04:12:37;5.43;;;0.75;;
74229;SDS011;62589;12.568;99.958;2023-08-07T04:15:03;3.55;;;0.60;;
74229;SDS011;62589;12.568;99.958;2023-08-07T04:17:32;1.75;;;0.50;;
74229;SDS011;62589;12.568;99.958;2023-08-07T04:19:58;3.35;;;0.70;;
74229;SDS011;62589;12.568;99.958;2023-08-07T04:22:25;3.53;;;0.70;;
74229;SDS011;62589;12.568;99.958;2023-08-07T04:24:51;3.35;;;0.52;;
74229;SDS011;62589;12.568;99.958;2023-08-07T04:27:17;4.47;;;0.80;;
74229;SDS011;62589;12.568;99.958;2023-08-07T04:29:44;7.70;;;0.50;;
74229;SDS011;62589;12.568;99.958;2023-08-07T04:32:10;1.05;;;0.43;;
74229;SDS011;62589;12.568;99.958;2023-08-07T04:34:37;3.97;;;0.70;;
74229;SDS011;62589;12.568;99.958;2023-08-07T04:37:03;4.40;;;0.57;;
74229;SDS011;62589;12.568;99.958;2023-08-07T04:39:31;2.08;;;0.43;;
74229;SDS011;62589;12.568;99.958;2023-08-07T04:41:58;2.47;;;0.43;;
74229;SDS011;62589;12.568;99.958;2023-08-07T04:44:24;5.07;;;0.98;;
74229;SDS011;62589;12.568;99.958;2023-08-07T04:46:51;2.97;;;0.43;;
74229;SDS011;62589;12.568;99.958;2023-08-07T04:49:17;3.40;;;0.73;;
74229;SDS011;62589;12.568;99.958;2023-08-07T04:51:44;3.67;;;0.73;;
74229;SDS011;62589;12.568;99.958;2023-08-07T04:54:10;4.90;;;0.68;;
74229;SDS011;62589;12.568;99.958;2023-08-07T04:56:37;5.25;;;0.70;;
74229;SDS011;62589;12.568;99.958;2023-08-07T04:59:03;2.15;;;0.45;;
74229;SDS011;62589;12.568;99.958;2023-08-07T05:01:29;2.55;;;0.60;;
74229;SDS011;62589;12.568;99.958;2023-08-07T05:03:56;5.25;;;0.95;;
74229;SDS011;62589;12.568;99.958;2023-08-07T05:06:23;4.05;;;0.63;;
74229;SDS011;62589;12.568;99.958;2023-08-07T05:08:49;2.25;;;0.80;;
74229;SDS011;62589;12.568;99.958;2023-08-07T05:11:16;2.92;;;0.70;;
74229;SDS011;62589;12.568;99.958;2023-08-07T05:13:42;5.30;;;0.80;;
74229;SDS011;62589;12.568;99.958;2023-08-07T05:16:09;3.42;;;0.70;;
74229;SDS011;62589;12.568;99.958;2023-08-07T05:18:35;3.60;;;0.90;;
74229;SDS011;62589;12.568;99.958;2023-08-07T05:21:01;3.00;;;0.40;;
74229;SDS011;62589;12.568;99.958;2023-08-07T05:23:28;6.15;;;0.77;;
74229;SDS011;62589;12.568;99.958;2023-08-07T05:25:54;3.90;;;0.60;;
74229;SDS011;62589;12.568;99.958;2023-08-07T05:28:21;1.48;;;0.60;;
74229;SDS011;62589;12.568;99.958;2023-08-07T05:30:47;4.30;;;0.80;;
74229;SDS011;62589;12.568;99.958;2023-08-07T05:33:14;2.00;;;0.43;;
74229;SDS011;62589;12.568;99.958;2023-08-07T05:35:40;1.70;;;0.50;;
74229;SDS011;62589;12.568;99.958;2023-08-07T05:38:07;3.53;;;0.80;;
74229;SDS011;62589;12.568;99.958;2023-08-07T05:40:34;3.78;;;0.40;;
74229;SDS011;62589;12.568;99.958;2023-08-07T05:43:02;4.05;;;0.60;;
74229;SDS011;62589;12.568;99.958;2023-08-07T05:45:28;1.92;;;0.55;;
74229;SDS011;62589;12.568;99.958;2023-08-07T05:47:55;2.13;;;0.70;;
74229;SDS011;62589;12.568;99.958;2023-08-07T05:50:21;2.83;;;0.70;;
74229;SDS011;62589;12.568;99.958;2023-08-07T05:52:47;3.63;;;0.43;;
74229;SDS011;62589;12.568;99.958;2023-08-07T05:55:14;4.43;;;0.73;;
74229;SDS011;62589;12.568;99.958;2023-08-07T05:57:40;5.20;;;0.57;;
74229;SDS011;62589;12.568;99.958;2023-08-07T06:00:07;2.47;;;0.70;;
74229;SDS011;62589;12.568;99.958;2023-08-07T06:02:39;3.92;;;0.65;;
74229;SDS011;62589;12.568;99.958;2023-08-07T06:05:05;3.38;;;0.60;;
74229;SDS011;62589;12.568;99.958;2023-08-07T06:07:33;2.13;;;0.55;;
74229;SDS011;62589;12.568;99.958;2023-08-07T06:09:59;2.83;;;0.52;;
74229;SDS011;62589;12.568;99.958;2023-08-07T06:12:26;1.05;;;0.30;;
74229;SDS011;62589;12.568;99.958;2023-08-07T06:14:52;3.88;;;0.85;;
74229;SDS011;62589;12.568;99.958;2023-08-07T06:17:19;3.15;;;0.68;;
74229;SDS011;62589;12.568;99.958;2023-08-07T06:19:45;2.78;;;0.60;;
74229;SDS011;62589;12.568;99.958;2023-08-07T06:22:12;4.95;;;0.90;;
74229;SDS011;62589;12.568;99.958;2023-08-07T06:24:38;1.50;;;0.40;;
74229;SDS011;62589;12.568;99.958;2023-08-07T06:27:04;3.63;;;0.60;;
74229;SDS011;62589;12.568;99.958;2023-08-07T06:29:31;3.70;;;0.60;;
74229;SDS011;62589;12.568;99.958;2023-08-07T06:31:57;3.60;;;0.65;;
74229;SDS011;62589;12.568;99.958;2023-08-07T06:34:24;2.10;;;0.40;;
74229;SDS011;62589;12.568;99.958;2023-08-07T06:36:50;3.22;;;0.30;;
74229;SDS011;62589;12.568;99.958;2023-08-07T06:39:17;4.32;;;0.22;;
74229;SDS011;62589;12.568;99.958;2023-08-07T06:41:43;1.58;;;0.40;;
74229;SDS011;62589;12.568;99.958;2023-08-07T06:44:10;2.38;;;0.38;;
74229;SDS011;62589;12.568;99.958;2023-08-07T06:46:36;3.10;;;0.50;;
74229;SDS011;62589;12.568;99.958;2023-08-07T06:49:02;2.88;;;1.00;;
74229;SDS011;62589;12.568;99.958;2023-08-07T06:51:29;4.18;;;0.52;;
74229;SDS011;62589;12.568;99.958;2023-08-07T06:53:55;3.35;;;0.57;;
74229;SDS011;62589;12.568;99.958;2023-08-07T06:56:22;4.40;;;0.68;;
74229;SDS011;62589;12.568;99.958;2023-08-07T06:58:48;2.22;;;0.40;;
74229;SDS011;62589;12.568;99.958;2023-08-07T07:01:15;4.93;;;0.45;;
74229;SDS011;62589;12.568;99.958;2023-08-07T07:03:41;6.05;;;0.90;;
74229;SDS011;62589;12.568;99.958;2023-08-07T07:06:09;2.05;;;0.60;;
74229;SDS011;62589;12.568;99.958;2023-08-07T07:08:35;2.90;;;0.65;;
74229;SDS011;62589;12.568;99.958;2023-08-07T07:11:05;3.42;;;0.55;;
74229;SDS011;62589;12.568;99.958;2023-08-07T07:13:31;2.83;;;0.45;;
74229;SDS011;62589;12.568;99.958;2023-08-07T07:15:58;2.95;;;0.70;;
74229;SDS011;62589;12.568;99.958;2023-08-07T07:18:24;1.63;;;0.68;;
74229;SDS011;62589;12.568;99.958;2023-08-07T07:20:57;5.47;;;0.90;;
74229;SDS011;62589;12.568;99.958;2023-08-07T07:23:25;3.63;;;0.73;;
74229;SDS011;62589;12.568;99.958;2023-08-07T07:25:52;2.05;;;0.60;;
74229;SDS011;62589;12.568;99.958;2023-08-07T07:28:19;2.38;;;0.47;;
74229;SDS011;62589;12.568;99.958;2023-08-07T07:30:46;1.88;;;0.50;;
74229;SDS011;62589;12.568;99.958;2023-08-07T07:33:13;4.05;;;0.70;;
74229;SDS011;62589;12.568;99.958;2023-08-07T07:35:39;5.53;;;0.60;;
74229;SDS011;62589;12.568;99.958;2023-08-07T07:38:06;3.20;;;0.60;;
74229;SDS011;62589;12.568;99.958;2023-08-07T07:40:33;6.03;;;0.90;;
74229;SDS011;62589;12.568;99.958;2023-08-07T07:43:00;2.55;;;0.80;;
74229;SDS011;62589;12.568;99.958;2023-08-07T07:45:26;2.53;;;0.40;;
74229;SDS011;62589;12.568;99.958;2023-08-07T07:47:53;3.67;;;0.50;;
74229;SDS011;62589;12.568;99.958;2023-08-07T07:50:19;1.95;;;0.77;;
74229;SDS011;62589;12.568;99.958;2023-08-07T07:52:45;6.00;;;1.10;;
74229;SDS011;62589;12.568;99.958;2023-08-07T07:55:12;7.18;;;0.70;;
74229;SDS011;62589;12.568;99.958;2023-08-07T07:57:39;5.07;;;0.68;;
74229;SDS011;62589;12.568;99.958;2023-08-07T08:00:06;2.75;;;0.70;;
74229;SDS011;62589;12.568;99.958;2023-08-07T08:02:37;7.40;;;0.98;;
74229;SDS011;62589;12.568;99.958;2023-08-07T08:05:05;5.28;;;0.90;;
74229;SDS011;62589;12.568;99.958;2023-08-07T08:07:35;1.65;;;0.52;;
74229;SDS011;62589;12.568;99.958;2023-08-07T08:10:06;2.97;;;0.80;;
74229;SDS011;62589;12.568;99.958;2023-08-07T08:12:34;3.28;;;0.57;;
74229;SDS011;62589;12.568;99.958;2023-08-07T08:15:01;4.05;;;0.68;;
74229;SDS011;62589;12.568;99.958;2023-08-07T08:17:28;2.90;;;0.70;;
74229;SDS011;62589;12.568;99.958;2023-08-07T08:19:55;3.90;;;0.82;;
74229;SDS011;62589;12.568;99.958;2023-08-07T08:22:21;4.68;;;0.80;;
74229;SDS011;62589;12.568;99.958;2023-08-07T08:24:48;6.05;;;0.77;;
74229;SDS011;62589;12.568;99.958;2023-08-07T08:27:14;4.57;;;1.15;;
74229;SDS011;62589;12.568;99.958;2023-08-07T08:29:42;4.13;;;1.00;;
74229;SDS011;62589;12.568;99.958;2023-08-07T08:32:08;5.53;;;1.23;;
74229;SDS011;62589;12.568;99.958;2023-08-07T08:34:35;3.13;;;1.30;;
74229;SDS011;62589;12.568;99.958;2023-08-07T08:37:01;4.68;;;1.20;;
74229;SDS011;62589;12.568;99.958;2023-08-07T08:39:31;6.03;;;1.80;;
74229;SDS011;62589;12.568;99.958;2023-08-07T08:41:57;4.18;;;1.30;;
74229;SDS011;62589;12.568;99.958;2023-08-07T08:44:24;6.63;;;1.15;;
74229;SDS011;62589;12.568;99.958;2023-08-07T08:46:53;3.75;;;1.10;;
74229;SDS011;62589;12.568;99.958;2023-08-07T08:49:23;2.72;;;0.80;;
74229;SDS011;62589;12.568;99.958;2023-08-07T08:51:58;2.80;;;0.70;;
74229;SDS011;62589;12.568;99.958;2023-08-07T08:54:25;5.03;;;1.13;;
74229;SDS011;62589;12.568;99.958;2023-08-07T08:56:52;3.78;;;1.05;;
74229;SDS011;62589;12.568;99.958;2023-08-07T08:59:19;4.35;;;1.10;;
74229;SDS011;62589;12.568;99.958;2023-08-07T09:01:47;5.72;;;0.80;;
74229;SDS011;62589;12.568;99.958;2023-08-07T09:04:18;5.15;;;0.98;;
74229;SDS011;62589;12.568;99.958;2023-08-07T09:06:44;3.92;;;0.80;;
74229;SDS011;62589;12.568;99.958;2023-08-07T09:09:13;6.35;;;1.05;;
74229;SDS011;62589;12.568;99.958;2023-08-07T09:11:43;3.70;;;0.60;;
74229;SDS011;62589;12.568;99.958;2023-08-07T09:14:13;3.92;;;0.93;;
74229;SDS011;62589;12.568;99.958;2023-08-07T09:16:43;3.28;;;0.88;;
74229;SDS011;62589;12.568;99.958;2023-08-07T09:19:12;3.15;;;0.70;;
74229;SDS011;62589;12.568;99.958;2023-08-07T09:21:38;4.03;;;0.98;;
74229;SDS011;62589;12.568;99.958;2023-08-07T09:24:05;2.65;;;0.63;;
74229;SDS011;62589;12.568;99.958;2023-08-07T09:26:32;3.25;;;0.70;;
74229;SDS011;62589;12.568;99.958;2023-08-07T09:29:02;6.05;;;0.73;;
74229;SDS011;62589;12.568;99.958;2023-08-07T09:31:28;4.55;;;0.70;;
74229;SDS011;62589;12.568;99.958;2023-08-07T09:34:00;3.83;;;0.95;;
74229;SDS011;62589;12.568;99.958;2023-08-07T09:36:34;6.00;;;0.73;;
74229;SDS011;62589;12.568;99.958;2023-08-07T09:39:01;7.00;;;1.00;;
74229;SDS011;62589;12.568;99.958;2023-08-07T09:41:28;4.22;;;0.88;;
74229;SDS011;62589;12.568;99.958;2023-08-07T09:43:55;3.47;;;0.55;;
74229;SDS011;62589;12.568;99.958;2023-08-07T09:46:23;3.92;;;0.88;;
74229;SDS011;62589;12.568;99.958;2023-08-07T09:48:52;20.38;;;8.25;;
74229;SDS011;62589;12.568;99.958;2023-08-07T09:51:22;18.25;;;8.07;;
74229;SDS011;62589;12.568;99.958;2023-08-07T09:53:49;11.10;;;5.35;;
74229;SDS011;62589;12.568;99.958;2023-08-07T09:56:16;9.02;;;3.42;;
74229;SDS011;62589;12.568;99.958;2023-08-07T09:58:46;7.90;;;1.35;;
74229;SDS011;62589;12.568;99.958;2023-08-07T10:01:14;4.93;;;1.20;;
74229;SDS011;62589;12.568;99.958;2023-08-07T10:03:42;3.05;;;0.70;;
74229;SDS011;62589;12.568;99.958;2023-08-07T10:06:09;2.70;;;0.57;;
74229;SDS011;62589;12.568;99.958;2023-08-07T10:08:37;2.38;;;0.70;;
74229;SDS011;62589;12.568;99.958;2023-08-07T10:11:05;5.25;;;0.73;;
74229;SDS011;62589;12.568;99.958;2023-08-07T10:13:34;2.50;;;0.80;;
74229;SDS011;62589;12.568;99.958;2023-08-07T10:16:02;4.10;;;0.65;;
74229;SDS011;62589;12.568;99.958;2023-08-07T10:18:29;2.40;;;0.68;;
74229;SDS011;62589;12.568;99.958;2023-08-07T10:20:55;4.22;;;0.93;;
74229;SDS011;62589;12.568;99.958;2023-08-07T10:23:25;3.60;;;1.35;;
74229;SDS011;62589;12.568;99.958;2023-08-07T10:25:51;5.78;;;1.05;;
74229;SDS011;62589;12.568;99.958;2023-08-07T10:28:19;2.40;;;0.80;;
74229;SDS011;62589;12.568;99.958;2023-08-07T10:30:47;2.63;;;0.60;;
74229;SDS011;62589;12.568;99.958;2023-08-07T10:33:15;6.95;;;1.08;;
74229;SDS011;62589;12.568;99.958;2023-08-07T10:35:46;3.00;;;0.98;;
74229;SDS011;62589;12.568;99.958;2023-08-07T10:38:13;3.55;;;0.75;;
74229;SDS011;62589;12.568;99.958;2023-08-07T10:43:36;9.98;;;0.95;;
74229;SDS011;62589;12.568;99.958;2023-08-07T10:46:19;2.88;;;0.75;;
74229;SDS011;62589;12.568;99.958;2023-08-07T10:48:53;3.90;;;0.70;;
74229;SDS011;62589;12.568;99.958;2023-08-07T10:51:23;6.70;;;1.80;;
74229;SDS011;62589;12.568;99.958;2023-08-07T10:53:58;7.05;;;1.90;;
74229;SDS011;62589;12.568;99.958;2023-08-07T10:56:31;6.18;;;1.50;;
74229;SDS011;62589;12.568;99.958;2023-08-07T10:59:09;10.88;;;3.25;;
74229;SDS011;62589;12.568;99.958;2023-08-07T11:01:41;8.93;;;1.45;;
74229;SDS011;62589;12.568;99.958;2023-08-07T11:04:09;5.28;;;1.38;;
74229;SDS011;62589;12.568;99.958;2023-08-07T11:06:37;6.00;;;1.48;;
74229;SDS011;62589;12.568;99.958;2023-08-07T11:09:06;4.03;;;1.55;;
74229;SDS011;62589;12.568;99.958;2023-08-07T11:11:41;11.43;;;6.28;;
74229;SDS011;62589;12.568;99.958;2023-08-07T11:14:09;19.45;;;12.85;;
74229;SDS011;62589;12.568;99.958;2023-08-07T11:16:38;13.68;;;7.47;;
74229;SDS011;62589;12.568;99.958;2023-08-07T11:19:04;17.33;;;9.30;;
74229;SDS011;62589;12.568;99.958;2023-08-07T11:21:31;8.45;;;5.32;;
74229;SDS011;62589;12.568;99.958;2023-08-07T11:23:58;3.67;;;1.20;;
74229;SDS011;62589;12.568;99.958;2023-08-07T11:26:25;3.30;;;0.82;;
74229;SDS011;62589;12.568;99.958;2023-08-07T11:28:54;3.28;;;1.10;;
74229;SDS011;62589;12.568;99.958;2023-08-07T11:31:21;4.88;;;0.80;;
74229;SDS011;62589;12.568;99.958;2023-08-07T11:33:50;3.60;;;0.70;;
74229;SDS011;62589;12.568;99.958;2023-08-07T11:36:23;8.20;;;2.70;;
74229;SDS011;62589;12.568;99.958;2023-08-07T11:38:50;22.52;;;10.18;;
74229;SDS011;62589;12.568;99.958;2023-08-07T11:41:17;7.03;;;3.22;;
74229;SDS011;62589;12.568;99.958;2023-08-07T11:43:44;11.63;;;6.63;;
74229;SDS011;62589;12.568;99.958;2023-08-07T11:46:12;5.40;;;2.50;;
74229;SDS011;62589;12.568;99.958;2023-08-07T11:48:40;8.43;;;2.53;;
74229;SDS011;62589;12.568;99.958;2023-08-07T11:51:08;4.15;;;1.92;;
74229;SDS011;62589;12.568;99.958;2023-08-07T11:53:35;3.78;;;1.35;;
74229;SDS011;62589;12.568;99.958;2023-08-07T11:56:07;3.55;;;0.90;;
74229;SDS011;62589;12.568;99.958;2023-08-07T11:58:44;3.55;;;0.68;;
74229;SDS011;62589;12.568;99.958;2023-08-07T12:01:17;5.93;;;1.55;;
74229;SDS011;62589;12.568;99.958;2023-08-07T12:03:52;4.35;;;1.10;;
74229;SDS011;62589;12.568;99.958;2023-08-07T12:06:21;2.95;;;0.80;;
74229;SDS011;62589;12.568;99.958;2023-08-07T12:08:50;4.22;;;1.08;;
74229;SDS011;62589;12.568;99.958;2023-08-07T12:11:21;3.35;;;1.15;;
74229;SDS011;62589;12.568;99.958;2023-08-07T12:13:49;3.10;;;0.93;;
74229;SDS011;62589;12.568;99.958;2023-08-07T12:16:16;4.40;;;0.95;;
74229;SDS011;62589;12.568;99.958;2023-08-07T12:18:50;5.72;;;2.05;;
74229;SDS011;62589;12.568;99.958;2023-08-07T12:21:18;4.43;;;1.52;;
74229;SDS011;62589;12.568;99.958;2023-08-07T12:23:49;5.18;;;1.35;;
74229;SDS011;62589;12.568;99.958;2023-08-07T12:26:17;5.40;;;1.23;;
74229;SDS011;62589;12.568;99.958;2023-08-07T12:28:44;4.18;;;1.00;;
74229;SDS011;62589;12.568;99.958;2023-08-07T12:31:10;3.83;;;1.08;;
74229;SDS011;62589;12.568;99.958;2023-08-07T12:33:37;8.27;;;1.58;;
74229;SDS011;62589;12.568;99.958;2023-08-07T12:36:03;2.45;;;0.80;;
74229;SDS011;62589;12.568;99.958;2023-08-07T12:38:30;4.13;;;1.38;;
74229;SDS011;62589;12.568;99.958;2023-08-07T12:40:57;5.20;;;0.93;;
74229;SDS011;62589;12.568;99.958;2023-08-07T12:43:25;4.85;;;1.08;;
74229;SDS011;62589;12.568;99.958;2023-08-07T12:45:51;3.95;;;1.15;;
74229;SDS011;62589;12.568;99.958;2023-08-07T12:48:18;4.07;;;1.23;;
74229;SDS011;62589;12.568;99.958;2023-08-07T12:50:45;4.45;;;1.65;;
74229;SDS011;62589;12.568;99.958;2023-08-07T12:53:12;6.28;;;1.52;;
74229;SDS011;62589;12.568;99.958;2023-08-07T12:55:38;3.63;;;1.23;;
74229;SDS011;62589;12.568;99.958;2023-08-07T12:58:05;4.47;;;1.20;;
74229;SDS011;62589;12.568;99.958;2023-08-07T13:00:33;4.78;;;1.42;;
74229;SDS011;62589;12.568;99.958;2023-08-07T13:03:01;2.53;;;1.30;;
74229;SDS011;62589;12.568;99.958;2023-08-07T13:05:28;3.75;;;1.25;;
74229;SDS011;62589;12.568;99.958;2023-08-07T13:07:56;5.43;;;1.30;;
74229;SDS011;62589;12.568;99.958;2023-08-07T13:10:24;3.70;;;0.90;;
74229;SDS011;62589;12.568;99.958;2023-08-07T13:12:53;3.50;;;0.77;;
74229;SDS011;62589;12.568;99.958;2023-08-07T13:15:20;4.63;;;0.80;;
74229;SDS011;62589;12.568;99.958;2023-08-07T13:17:46;2.75;;;0.80;;
74229;SDS011;62589;12.568;99.958;2023-08-07T13:20:13;4.10;;;1.45;;
74229;SDS011;62589;12.568;99.958;2023-08-07T13:22:40;5.63;;;1.52;;
74229;SDS011;62589;12.568;99.958;2023-08-07T13:25:11;3.97;;;1.30;;
74229;SDS011;62589;12.568;99.958;2023-08-07T13:27:39;4.50;;;1.27;;
74229;SDS011;62589;12.568;99.958;2023-08-07T13:30:06;4.53;;;1.25;;
74229;SDS011;62589;12.568;99.958;2023-08-07T13:32:34;4.55;;;1.00;;
74229;SDS011;62589;12.568;99.958;2023-08-07T13:35:00;4.65;;;1.27;;
74229;SDS011;62589;12.568;99.958;2023-08-07T13:37:28;4.35;;;1.02;;
74229;SDS011;62589;12.568;99.958;2023-08-07T13:39:55;2.97;;;0.70;;
74229;SDS011;62589;12.568;99.958;2023-08-07T13:42:23;5.25;;;0.88;;
74229;SDS011;62589;12.568;99.958;2023-08-07T13:44:53;4.68;;;0.85;;
74229;SDS011;62589;12.568;99.958;2023-08-07T13:47:21;5.75;;;0.88;;
74229;SDS011;62589;12.568;99.958;2023-08-07T13:49:49;3.95;;;0.80;;
74229;SDS011;62589;12.568;99.958;2023-08-07T13:52:16;3.38;;;0.75;;
74229;SDS011;62589;12.568;99.958;2023-08-07T13:54:42;6.20;;;0.70;;
74229;SDS011;62589;12.568;99.958;2023-08-07T13:57:09;6.85;;;1.10;;
74229;SDS011;62589;12.568;99.958;2023-08-07T13:59:35;4.40;;;1.05;;
74229;SDS011;62589;12.568;99.958;2023-08-07T14:02:02;3.58;;;0.80;;
74229;SDS011;62589;12.568;99.958;2023-08-07T14:04:28;6.38;;;1.40;;
74229;SDS011;62589;12.568;99.958;2023-08-07T14:06:55;3.65;;;1.15;;
74229;SDS011;62589;12.568;99.958;2023-08-07T14:09:21;3.53;;;1.00;;
74229;SDS011;62589;12.568;99.958;2023-08-07T14:11:48;2.55;;;0.90;;
74229;SDS011;62589;12.568;99.958;2023-08-07T14:14:15;4.15;;;1.10;;
74229;SDS011;62589;12.568;99.958;2023-08-07T14:16:42;3.53;;;0.90;;
74229;SDS011;62589;12.568;99.958;2023-08-07T14:19:08;3.50;;;0.90;;
74229;SDS011;62589;12.568;99.958;2023-08-07T14:21:35;4.63;;;1.15;;
74229;SDS011;62589;12.568;99.958;2023-08-07T14:24:02;2.55;;;0.60;;
74229;SDS011;62589;12.568;99.958;2023-08-07T14:26:28;4.68;;;0.63;;
74229;SDS011;62589;12.568;99.958;2023-08-07T14:28:55;3.83;;;1.30;;
74229;SDS011;62589;12.568;99.958;2023-08-07T14:31:21;4.85;;;1.08;;
74229;SDS011;62589;12.568;99.958;2023-08-07T14:33:48;4.10;;;0.82;;
74229;SDS011;62589;12.568;99.958;2023-08-07T14:36:14;3.65;;;1.02;;
74229;SDS011;62589;12.568;99.958;2023-08-07T14:38:40;5.25;;;0.80;;
74229;SDS011;62589;12.568;99.958;2023-08-07T14:41:07;6.38;;;1.10;;